Time;durP1;ratioP1;P1;durP2;ratioP2;P2;SDS_P1;SDS_P2;PMS_P1;PMS_P2;Temp;Humidity;BMP_temperature;BMP_pressure;BME280_temperature;BME280_humidity;BME280_pressure;Samples;Min_cycle;Max_cycle;Signal;HPM_P1;HPM_P2
2022/08/29 00:01:57;;;;;;;;;;;15.90;99.90;;;;;;5069742;28;19978;-84
2022/08/29 00:04:22;;;;;;;;;;;15.90;99.90;;;;;;5071028;28;20285;-84
2022/08/29 00:06:47;;;;;;;;;;;15.90;99.90;;;;;;5070475;28;19951;-84
2022/08/29 00:09:13;;;;;;;;;;;15.80;99.90;;;;;;5070041;28;20465;-84
2022/08/29 00:11:38;;;;;;;;;;;15.80;99.90;;;;;;5070164;28;19917;-84
2022/08/29 00:14:04;;;;;;;;;;;15.90;99.90;;;;;;5060171;28;19920;-84
2022/08/29 00:16:29;;;;;;;;;;;15.80;99.90;;;;;;5065928;28;19943;-83
2022/08/29 00:18:55;;;;;;;;;;;15.80;99.90;;;;;;5069760;28;19977;-84
2022/08/29 00:21:21;;;;;;;;;;;15.80;99.90;;;;;;5069916;28;20007;-83
2022/08/29 00:23:46;;;;;;;;;;;15.80;99.90;;;;;;5070459;28;20015;-84
2022/08/29 00:26:12;;;;;;;;;;;15.80;99.90;;;;;;5052959;28;19956;-84
2022/08/29 00:28:38;;;;;;;;;;;15.80;99.90;;;;;;5050405;28;19943;-84
2022/08/29 00:31:03;;;;;;;;;;;15.80;99.90;;;;;;5041976;28;19916;-84
2022/08/29 00:33:29;;;;;;;;;;;15.80;99.90;;;;;;5054148;28;20342;-84
2022/08/29 00:35:54;;;;;;;;;;;15.80;99.90;;;;;;5069310;28;19927;-84
2022/08/29 00:38:20;;;;;;;;;;;15.80;99.90;;;;;;5056351;28;20397;-84
2022/08/29 00:40:47;;;;;;;;;;;15.80;99.90;;;;;;5050510;28;20297;-84
2022/08/29 00:43:13;;;;;;;;;;;15.80;99.90;;;;;;5062898;28;19917;-84
2022/08/29 00:45:45;;;;;;;;;;;15.80;99.90;;;;;;5070171;28;19916;-84
2022/08/29 00:48:11;;;;;;;;;;;15.80;99.90;;;;;;5070666;28;19923;-84
2022/08/29 00:50:37;;;;;;;;;;;15.80;99.90;;;;;;5068987;28;19939;-84
2022/08/29 00:53:04;;;;;;;;;;;15.80;99.90;;;;;;5069853;28;20305;-84
2022/08/29 00:55:31;;;;;;;;;;;15.80;99.90;;;;;;5068466;28;19920;-84
2022/08/29 00:57:59;;;;;;;;;;;15.80;99.90;;;;;;5055206;28;19916;-84
2022/08/29 01:00:26;;;;;;;;;;;15.80;99.90;;;;;;5069777;28;20345;-84
2022/08/29 01:02:53;;;;;;;;;;;15.80;99.90;;;;;;5068517;28;19917;-84
2022/08/29 01:05:19;;;;;;;;;;;15.80;99.90;;;;;;5052950;28;19973;-84
2022/08/29 01:07:45;;;;;;;;;;;15.80;99.90;;;;;;5069821;28;19916;-84
2022/08/29 01:12:14;;;;;;;;;;;15.80;99.90;;;;;;5069601;28;19923;-84
2022/08/29 01:12:57;;;;;;;;;;;15.80;99.90;;;;;;5061970;28;20007;-84
2022/08/29 01:15:23;;;;;;;;;;;15.80;99.90;;;;;;5049179;28;20115;-84
2022/08/29 01:17:49;;;;;;;;;;;15.80;99.90;;;;;;5053650;28;19939;-84
2022/08/29 01:20:24;;;;;;;;;;;15.80;99.90;;;;;;5068839;28;20457;-84
2022/08/29 01:23:07;;;;;;;;;;;15.80;99.90;;;;;;5069206;28;19966;-84
2022/08/29 01:25:35;;;;;;;;;;;15.80;99.90;;;;;;5062943;28;19917;-84
2022/08/29 01:28:11;;;;;;;;;;;15.80;99.90;;;;;;5050020;28;19966;-84
2022/08/29 01:30:54;;;;;;;;;;;15.80;99.90;;;;;;5051572;28;19916;-84
2022/08/29 01:33:20;;;;;;;;;;;15.80;99.90;;;;;;5052957;28;20095;-84
2022/08/29 01:35:45;;;;;;;;;;;15.80;99.90;;;;;;5048934;28;20473;-84
2022/08/29 01:38:26;;;;;;;;;;;15.80;99.90;;;;;;5057409;28;19920;-84
2022/08/29 01:40:54;;;;;;;;;;;15.80;99.90;;;;;;5049361;28;19951;-84
2022/08/29 01:43:20;;;;;;;;;;;15.80;99.90;;;;;;5055236;28;19977;-84
2022/08/29 01:45:45;;;;;;;;;;;15.70;99.90;;;;;;5059628;28;19916;-84
2022/08/29 01:48:11;;;;;;;;;;;15.80;99.90;;;;;;5069604;28;19924;-84
2022/08/29 01:50:36;;;;;;;;;;;15.70;99.90;;;;;;5067992;28;20346;-84
2022/08/29 01:53:02;;;;;;;;;;;15.70;99.90;;;;;;5069189;28;19923;-84
2022/08/29 01:55:27;;;;;;;;;;;15.70;99.90;;;;;;5052600;28;20488;-84
2022/08/29 01:57:53;;;;;;;;;;;15.70;99.90;;;;;;5050915;28;19917;-84
2022/08/29 02:00:18;;;;;;;;;;;15.70;99.90;;;;;;5069797;28;19924;-84
2022/08/29 02:02:44;;;;;;;;;;;15.70;99.90;;;;;;5068648;28;20373;-84
2022/08/29 02:05:09;;;;;;;;;;;15.70;99.90;;;;;;5053788;28;20394;-84
2022/08/29 02:07:35;;;;;;;;;;;15.70;99.90;;;;;;5050125;28;19920;-84
2022/08/29 02:10:00;;;;;;;;;;;15.70;99.90;;;;;;5066381;28;19917;-84
2022/08/29 02:12:26;;;;;;;;;;;15.70;99.90;;;;;;5068467;28;19943;-84
2022/08/29 02:14:51;;;;;;;;;;;15.70;99.90;;;;;;5068854;28;20472;-84
2022/08/29 02:17:18;;;;;;;;;;;15.70;99.90;;;;;;5068754;28;19923;-84
2022/08/29 02:19:43;;;;;;;;;;;15.70;99.90;;;;;;5068766;28;20284;-84
2022/08/29 02:22:09;;;;;;;;;;;15.70;99.90;;;;;;5051946;28;19995;-84
2022/08/29 02:24:35;;;;;;;;;;;15.70;99.90;;;;;;5068492;28;19920;-83
2022/08/29 02:27:00;;;;;;;;;;;15.70;99.90;;;;;;5068476;28;20348;-83
2022/08/29 02:29:26;;;;;;;;;;;15.70;99.90;;;;;;5069181;28;20329;-84
2022/08/29 02:31:53;;;;;;;;;;;15.70;99.90;;;;;;5052559;28;19921;-84
2022/08/29 02:34:18;;;;;;;;;;;15.70;99.90;;;;;;5071720;28;19920;-84
2022/08/29 02:36:44;;;;;;;;;;;15.70;99.90;;;;;;5054795;28;19939;-84
2022/08/29 02:39:09;;;;;;;;;;;15.70;99.90;;;;;;5052393;28;19928;-84
2022/08/29 02:41:35;;;;;;;;;;;15.70;99.90;;;;;;5067590;28;19955;-84
2022/08/29 02:44:01;;;;;;;;;;;15.70;99.90;;;;;;5072429;28;19916;-84
2022/08/29 02:46:26;;;;;;;;;;;15.70;99.90;;;;;;5055738;28;20082;-84
2022/08/29 02:48:53;;;;;;;;;;;15.60;99.90;;;;;;5071655;28;20452;-84
2022/08/29 02:51:20;;;;;;;;;;;15.60;99.90;;;;;;5055539;28;19916;-83
2022/08/29 02:53:45;;;;;;;;;;;15.60;99.90;;;;;;5061181;28;19916;-84
2022/08/29 02:56:10;;;;;;;;;;;15.60;99.90;;;;;;5052057;28;20397;-84
2022/08/29 02:58:36;;;;;;;;;;;15.60;99.90;;;;;;5060387;28;19921;-84
2022/08/29 03:01:02;;;;;;;;;;;15.60;99.90;;;;;;5052186;28;20405;-84
2022/08/29 03:03:28;;;;;;;;;;;15.60;99.90;;;;;;5057995;28;19920;-84
2022/08/29 03:05:54;;;;;;;;;;;15.60;99.90;;;;;;5071818;28;19917;-84
2022/08/29 03:08:19;;;;;;;;;;;15.60;99.90;;;;;;5072260;28;19959;-84
2022/08/29 03:10:45;;;;;;;;;;;15.60;99.90;;;;;;5055671;28;19974;-84
2022/08/29 03:13:10;;;;;;;;;;;15.60;99.90;;;;;;5051987;28;19917;-84
2022/08/29 03:15:36;;;;;;;;;;;15.60;99.90;;;;;;5066968;28;19946;-83
2022/08/29 03:18:02;;;;;;;;;;;15.60;99.90;;;;;;5051428;28;20398;-83
2022/08/29 03:20:28;;;;;;;;;;;15.60;99.90;;;;;;5060099;28;20336;-84
2022/08/29 03:22:53;;;;;;;;;;;15.60;99.90;;;;;;5051688;28;19916;-84
2022/08/29 03:25:20;;;;;;;;;;;15.50;99.90;;;;;;5052408;28;19917;-84
2022/08/29 03:27:46;;;;;;;;;;;15.50;99.90;;;;;;5071554;28;19971;-84
2022/08/29 03:30:13;;;;;;;;;;;15.50;99.90;;;;;;5071794;28;19924;-84
2022/08/29 03:32:38;;;;;;;;;;;15.50;99.90;;;;;;5070510;28;20423;-84
2022/08/29 03:35:04;;;;;;;;;;;15.50;99.90;;;;;;5071481;28;19921;-84
2022/08/29 03:37:31;;;;;;;;;;;15.50;99.90;;;;;;5054285;28;19920;-84
2022/08/29 03:39:57;;;;;;;;;;;15.50;99.90;;;;;;5071126;28;19970;-84
2022/08/29 03:42:22;;;;;;;;;;;15.50;99.90;;;;;;5070138;28;19964;-84
2022/08/29 03:44:48;;;;;;;;;;;15.50;99.90;;;;;;5057801;28;19916;-84
2022/08/29 03:47:14;;;;;;;;;;;15.50;99.90;;;;;;5051612;28;19971;-84
2022/08/29 03:49:40;;;;;;;;;;;15.40;99.90;;;;;;5059410;28;19999;-84
2022/08/29 03:52:08;;;;;;;;;;;15.40;99.90;;;;;;5070755;28;19999;-84
2022/08/29 03:54:34;;;;;;;;;;;15.40;99.90;;;;;;5070829;28;19924;-84
2022/08/29 03:56:59;;;;;;;;;;;15.40;99.90;;;;;;5036781;28;20420;-84
2022/08/29 03:59:25;;;;;;;;;;;15.40;99.90;;;;;;5070891;28;20025;-84
2022/08/29 04:01:51;;;;;;;;;;;15.40;99.90;;;;;;5061312;28;20413;-84
2022/08/29 04:07:11;;;;;;;;;;;15.30;99.90;;;;;;5036934;28;19995;-84
2022/08/29 04:09:38;;;;;;;;;;;15.30;99.90;;;;;;5051200;28;20437;-84
2022/08/29 04:12:03;;;;;;;;;;;15.30;99.90;;;;;;5061133;28;19917;-84
2022/08/29 04:14:29;;;;;;;;;;;15.30;99.90;;;;;;5070642;28;20297;-84
2022/08/29 04:16:55;;;;;;;;;;;15.30;99.90;;;;;;5070954;28;20281;-84
2022/08/29 04:19:20;;;;;;;;;;;15.30;99.90;;;;;;5069682;28;19921;-84
2022/08/29 04:21:47;;;;;;;;;;;15.30;99.90;;;;;;5070722;28;19920;-84
2022/08/29 04:24:14;;;;;;;;;;;15.30;99.90;;;;;;5070849;28;19916;-84
2022/08/29 04:26:39;;;;;;;;;;;15.30;99.90;;;;;;5069702;28;19916;-84
2022/08/29 04:29:09;;;;;;;;;;;15.30;99.90;;;;;;5071071;28;19970;-84
2022/08/29 04:31:35;;;;;;;;;;;15.30;99.90;;;;;;5050276;28;20686;-84
2022/08/29 04:34:01;;;;;;;;;;;15.30;99.90;;;;;;5033399;28;19917;-84
2022/08/29 04:36:27;;;;;;;;;;;15.30;99.90;;;;;;5050281;28;19920;-84
2022/08/29 04:38:53;;;;;;;;;;;15.30;99.90;;;;;;5041757;28;19924;-84
2022/08/29 04:41:20;;;;;;;;;;;15.30;99.90;;;;;;5049950;28;19924;-84
2022/08/29 04:43:45;;;;;;;;;;;15.30;99.90;;;;;;5061363;28;19916;-84
2022/08/29 04:46:12;;;;;;;;;;;15.30;99.90;;;;;;5053723;28;20070;-84
2022/08/29 04:48:38;;;;;;;;;;;15.30;99.90;;;;;;5070134;28;19968;-84
2022/08/29 04:51:03;;;;;;;;;;;15.30;99.90;;;;;;5052028;28;19998;-84
2022/08/29 04:53:29;;;;;;;;;;;15.30;99.90;;;;;;5053658;28;19943;-84
2022/08/29 04:56:00;;;;;;;;;;;15.30;99.90;;;;;;5051850;28;19955;-84
2022/08/29 04:58:26;;;;;;;;;;;15.30;99.90;;;;;;5053401;28;20087;-83
2022/08/29 05:00:52;;;;;;;;;;;15.30;99.90;;;;;;5069712;28;19923;-84
2022/08/29 05:03:18;;;;;;;;;;;15.20;99.90;;;;;;5068942;28;19928;-84
2022/08/29 05:05:44;;;;;;;;;;;15.30;99.90;;;;;;5053620;28;19916;-84
2022/08/29 05:08:09;;;;;;;;;;;15.30;99.90;;;;;;5067552;28;20577;-84
2022/08/29 05:10:35;;;;;;;;;;;15.30;99.90;;;;;;5059748;28;19920;-84
2022/08/29 05:13:00;;;;;;;;;;;15.30;99.90;;;;;;5060024;28;19924;-84
2022/08/29 05:15:26;;;;;;;;;;;15.20;99.90;;;;;;5052645;28;20005;-84
2022/08/29 05:17:53;;;;;;;;;;;15.20;99.90;;;;;;5069327;28;20018;-84
2022/08/29 05:20:19;;;;;;;;;;;15.20;99.90;;;;;;5052283;28;19920;-84
2022/08/29 05:22:44;;;;;;;;;;;15.20;99.90;;;;;;5052587;28;19923;-84
2022/08/29 05:25:11;;;;;;;;;;;15.20;99.90;;;;;;5069534;28;20518;-84
2022/08/29 05:27:38;;;;;;;;;;;15.10;99.90;;;;;;5045571;28;19921;-84
2022/08/29 05:30:04;;;;;;;;;;;15.10;99.90;;;;;;5049804;28;19923;-84
2022/08/29 05:32:29;;;;;;;;;;;15.10;99.90;;;;;;5055572;28;19967;-84
2022/08/29 05:34:56;;;;;;;;;;;15.10;99.90;;;;;;5068855;28;19960;-84
2022/08/29 05:37:22;;;;;;;;;;;15.00;99.90;;;;;;5052075;28;20019;-83
2022/08/29 05:39:48;;;;;;;;;;;15.10;99.90;;;;;;5068027;28;20031;-83
2022/08/29 05:42:15;;;;;;;;;;;15.00;99.90;;;;;;5069249;28;19973;-84
2022/08/29 05:44:41;;;;;;;;;;;15.10;99.90;;;;;;5048332;28;20013;-84
2022/08/29 05:47:08;;;;;;;;;;;15.10;99.90;;;;;;5054588;28;20003;-84
2022/08/29 05:49:34;;;;;;;;;;;15.20;99.90;;;;;;5049388;28;19921;-84
2022/08/29 05:52:00;;;;;;;;;;;15.20;99.90;;;;;;5066062;28;19967;-84
2022/08/29 05:54:26;;;;;;;;;;;15.30;99.90;;;;;;5068710;28;19963;-84
2022/08/29 05:56:51;;;;;;;;;;;15.30;99.90;;;;;;5068954;28;19917;-84
2022/08/29 05:59:18;;;;;;;;;;;15.30;99.90;;;;;;5069842;28;19916;-84
2022/08/29 06:01:45;;;;;;;;;;;15.40;99.90;;;;;;5068607;28;19923;-84
2022/08/29 06:04:11;;;;;;;;;;;15.40;99.90;;;;;;5045369;28;19995;-84
2022/08/29 06:06:38;;;;;;;;;;;15.40;99.90;;;;;;5051828;28;19956;-84
2022/08/29 06:09:03;;;;;;;;;;;15.50;99.90;;;;;;5055063;28;19942;-84
2022/08/29 06:11:30;;;;;;;;;;;15.50;99.90;;;;;;5052844;28;19920;-84
2022/08/29 06:13:55;;;;;;;;;;;15.50;99.90;;;;;;5069833;28;19917;-84
2022/08/29 06:16:22;;;;;;;;;;;15.60;99.90;;;;;;5063530;28;19931;-84
2022/08/29 06:18:47;;;;;;;;;;;15.60;99.90;;;;;;5036675;28;19963;-84
2022/08/29 06:21:13;;;;;;;;;;;15.60;99.90;;;;;;5042503;28;19978;-84
2022/08/29 06:23:40;;;;;;;;;;;15.60;99.90;;;;;;5055727;28;20404;-84
2022/08/29 06:26:06;;;;;;;;;;;15.70;99.90;;;;;;5056350;28;19920;-84
2022/08/29 06:28:32;;;;;;;;;;;15.70;99.90;;;;;;5067757;28;20000;-84
2022/08/29 06:31:05;;;;;;;;;;;15.70;99.90;;;;;;5052201;28;20046;-84
2022/08/29 06:33:30;;;;;;;;;;;15.70;99.90;;;;;;5052701;28;20014;-84
2022/08/29 06:35:56;;;;;;;;;;;15.80;99.90;;;;;;5060640;28;20015;-83
2022/08/29 06:38:21;;;;;;;;;;;15.80;99.90;;;;;;5052312;28;19936;-84
2022/08/29 06:40:47;;;;;;;;;;;15.80;99.90;;;;;;5059625;28;19924;-84
2022/08/29 06:43:12;;;;;;;;;;;15.80;99.90;;;;;;5072068;28;20266;-84
2022/08/29 06:45:41;;;;;;;;;;;15.80;99.90;;;;;;5067871;28;20021;-83
2022/08/29 06:48:07;;;;;;;;;;;15.90;99.90;;;;;;5051523;28;20003;-84
2022/08/29 06:50:36;;;;;;;;;;;15.90;99.90;;;;;;5055943;28;20081;-84
2022/08/29 06:53:03;;;;;;;;;;;16.00;99.90;;;;;;5071219;28;19932;-83
2022/08/29 06:55:28;;;;;;;;;;;16.00;99.90;;;;;;5072346;28;19920;-83
2022/08/29 06:57:54;;;;;;;;;;;16.00;99.90;;;;;;5055811;28;19947;-83
2022/08/29 07:00:20;;;;;;;;;;;16.00;99.90;;;;;;5062975;28;20427;-83
2022/08/29 07:02:49;;;;;;;;;;;16.00;99.90;;;;;;5072145;28;20301;-83
2022/08/29 07:05:15;;;;;;;;;;;16.10;99.90;;;;;;5071454;28;19964;-83
2022/08/29 07:07:41;;;;;;;;;;;16.10;99.90;;;;;;5042775;28;19963;-83
2022/08/29 07:10:07;;;;;;;;;;;16.10;99.90;;;;;;5052564;28;19928;-83
2022/08/29 07:12:33;;;;;;;;;;;16.20;99.90;;;;;;5059973;28;19986;-83
2022/08/29 07:14:58;;;;;;;;;;;16.20;99.90;;;;;;5051451;28;20294;-83
2022/08/29 07:17:24;;;;;;;;;;;16.20;99.90;;;;;;5059559;28;20305;-84
2022/08/29 07:19:49;;;;;;;;;;;16.20;99.90;;;;;;5051684;28;20006;-83
2022/08/29 07:22:15;;;;;;;;;;;16.30;99.90;;;;;;5051832;28;20020;-84
2022/08/29 07:24:40;;;;;;;;;;;16.40;99.90;;;;;;5059883;28;20358;-84
2022/08/29 07:27:06;;;;;;;;;;;16.50;99.90;;;;;;5051510;28;19923;-84
2022/08/29 07:29:32;;;;;;;;;;;16.50;99.90;;;;;;5038971;28;19920;-84
2022/08/29 07:31:57;;;;;;;;;;;16.60;99.90;;;;;;5070932;28;19927;-84
2022/08/29 07:34:23;;;;;;;;;;;16.70;99.90;;;;;;5071797;28;20298;-84
2022/08/29 07:36:48;;;;;;;;;;;16.70;99.90;;;;;;5054777;28;19956;-84
2022/08/29 07:39:15;;;;;;;;;;;16.80;99.90;;;;;;5052113;28;20381;-84
2022/08/29 07:41:42;;;;;;;;;;;16.90;99.90;;;;;;5051078;28;20006;-84
2022/08/29 07:44:08;;;;;;;;;;;17.00;99.90;;;;;;5067676;28;19954;-83
2022/08/29 07:46:33;;;;;;;;;;;17.10;99.90;;;;;;5071461;28;19917;-83
2022/08/29 07:48:59;;;;;;;;;;;17.20;99.90;;;;;;5071460;28;19923;-83
2022/08/29 07:51:25;;;;;;;;;;;17.30;99.90;;;;;;5070259;28;20426;-83
2022/08/29 07:53:51;;;;;;;;;;;17.30;99.90;;;;;;5053679;28;19917;-83
2022/08/29 07:56:19;;;;;;;;;;;17.40;99.90;;;;;;5044855;28;20055;-84
2022/08/29 07:58:44;;;;;;;;;;;17.50;99.90;;;;;;5051673;28;20405;-83
2022/08/29 08:01:10;;;;;;;;;;;17.50;99.90;;;;;;5051398;28;20394;-84
2022/08/29 08:03:36;;;;;;;;;;;17.70;99.90;;;;;;5072281;28;19923;-83
2022/08/29 08:06:02;;;;;;;;;;;17.70;99.90;;;;;;5071457;28;19924;-84
2022/08/29 08:08:28;;;;;;;;;;;17.80;99.90;;;;;;5044127;28;20289;-84
2022/08/29 08:10:54;;;;;;;;;;;17.80;99.90;;;;;;5034424;28;19923;-83
2022/08/29 08:13:20;;;;;;;;;;;17.90;99.90;;;;;;5054455;28;19923;-84
2022/08/29 08:15:45;;;;;;;;;;;18.00;99.90;;;;;;5068761;28;19920;-84
2022/08/29 08:18:11;;;;;;;;;;;18.00;99.90;;;;;;5070169;28;19970;-84
2022/08/29 08:20:36;;;;;;;;;;;18.10;99.90;;;;;;5061641;28;19920;-84
2022/08/29 08:23:02;;;;;;;;;;;18.20;99.90;;;;;;5071730;28;19917;-84
2022/08/29 08:25:27;;;;;;;;;;;18.20;99.90;;;;;;5070407;28;20362;-84
2022/08/29 08:27:53;;;;;;;;;;;18.30;99.90;;;;;;5053496;28;19962;-84
2022/08/29 08:30:19;;;;;;;;;;;18.40;99.90;;;;;;5069369;28;19916;-84
2022/08/29 08:32:45;;;;;;;;;;;18.50;99.90;;;;;;5069490;28;20262;-84
2022/08/29 08:35:11;;;;;;;;;;;18.60;99.90;;;;;;5070124;28;19920;-84
2022/08/29 08:37:37;;;;;;;;;;;18.70;99.90;;;;;;5053230;28;19920;-84
2022/08/29 08:40:03;;;;;;;;;;;18.80;99.90;;;;;;5069880;28;19916;-84
2022/08/29 08:42:41;;;;;;;;;;;18.90;99.90;;;;;;5069877;28;19969;-84
2022/08/29 08:45:14;;;;;;;;;;;19.00;99.90;;;;;;5039092;28;19920;-84
2022/08/29 08:47:48;;;;;;;;;;;19.20;99.90;;;;;;5050399;28;20366;-84
2022/08/29 08:50:39;;;;;;;;;;;19.30;99.90;;;;;;5087988;28;19912;-84
2022/08/29 08:53:09;;;;;;;;;;;19.40;99.90;;;;;;5086312;28;19973;-84
2022/08/29 08:55:46;;;;;;;;;;;19.50;99.90;;;;;;5071405;28;19966;-85
2022/08/29 08:58:12;;;;;;;;;;;19.60;99.90;;;;;;5067075;28;20007;-84
2022/08/29 09:00:44;;;;;;;;;;;19.70;99.90;;;;;;5065862;28;20460;-84
2022/08/29 09:03:22;;;;;;;;;;;19.80;99.90;;;;;;5065657;28;19999;-84
2022/08/29 09:05:56;;;;;;;;;;;19.90;99.90;;;;;;5066310;28;20281;-84
2022/08/29 09:08:34;;;;;;;;;;;19.90;99.90;;;;;;5049204;28;19986;-84
2022/08/29 09:11:01;;;;;;;;;;;20.00;99.90;;;;;;5067779;28;19960;-84
2022/08/29 09:13:46;;;;;;;;;;;20.00;99.90;;;;;;5066124;28;19920;-84
2022/08/29 09:16:22;;;;;;;;;;;20.00;99.90;;;;;;5065571;28;19920;-84
2022/08/29 09:18:47;;;;;;;;;;;20.10;99.90;;;;;;5066409;28;19920;-84
2022/08/29 09:21:15;;;;;;;;;;;20.10;99.90;;;;;;5065853;28;20012;-84
2022/08/29 09:23:46;;;;;;;;;;;20.20;99.90;;;;;;5049825;28;19966;-84
2022/08/29 09:26:14;;;;;;;;;;;20.20;99.90;;;;;;5067304;28;20621;-84
2022/08/29 09:28:40;;;;;;;;;;;20.30;99.90;;;;;;5081742;28;19924;-84
2022/08/29 09:31:15;;;;;;;;;;;20.30;99.90;;;;;;5066170;28;20488;-84
2022/08/29 09:34:00;;;;;;;;;;;20.40;99.90;;;;;;5082431;28;19959;-84
2022/08/29 09:36:45;;;;;;;;;;;20.40;99.90;;;;;;5065588;28;20408;-84
2022/08/29 09:39:22;;;;;;;;;;;20.50;99.90;;;;;;5065225;28;20009;-84
2022/08/29 09:41:51;;;;;;;;;;;20.50;99.90;;;;;;5064773;28;19920;-84
2022/08/29 09:44:21;;;;;;;;;;;20.70;99.90;;;;;;5065017;28;19921;-84
2022/08/29 09:47:02;;;;;;;;;;;20.80;99.90;;;;;;5048531;28;19927;-84
2022/08/29 09:49:27;;;;;;;;;;;20.90;99.90;;;;;;5065099;28;19970;-84
2022/08/29 09:52:05;;;;;;;;;;;20.90;99.90;;;;;;5064869;28;20313;-84
2022/08/29 09:54:31;;;;;;;;;;;21.00;99.90;;;;;;5065563;28;19927;-84
2022/08/29 09:57:20;;;;;;;;;;;21.00;99.90;;;;;;5065457;28;19920;-84
2022/08/29 09:59:47;;;;;;;;;;;21.10;99.90;;;;;;5045522;28;19928;-84
2022/08/29 10:02:15;;;;;;;;;;;21.20;99.90;;;;;;5051419;28;19924;-84
2022/08/29 10:04:42;;;;;;;;;;;21.30;99.90;;;;;;5051308;28;20535;-84
2022/08/29 10:07:09;;;;;;;;;;;21.40;99.90;;;;;;5035417;28;20014;-84
2022/08/29 10:09:35;;;;;;;;;;;21.50;99.90;;;;;;5052021;28;19928;-84
2022/08/29 10:12:11;;;;;;;;;;;21.50;99.90;;;;;;5034765;28;19921;-84
2022/08/29 10:14:44;;;;;;;;;;;21.60;99.90;;;;;;5050994;28;20270;-84
2022/08/29 10:19:59;;;;;;;;;;;21.80;99.90;;;;;;5051489;28;19921;-84
2022/08/29 10:22:31;;;;;;;;;;;21.80;99.90;;;;;;5034225;28;19944;-85
2022/08/29 10:24:56;;;;;;;;;;;21.80;99.90;;;;;;5051253;28;19921;-85
2022/08/29 10:27:30;;;;;;;;;;;21.90;99.90;;;;;;5051814;28;19929;-85
2022/08/29 10:30:01;;;;;;;;;;;21.80;99.90;;;;;;5050912;28;19925;-85
2022/08/29 10:32:35;;;;;;;;;;;21.90;99.90;;;;;;5051819;28;19921;-84
2022/08/29 10:35:15;;;;;;;;;;;21.90;99.90;;;;;;5050838;28;19920;-85
2022/08/29 10:37:47;;;;;;;;;;;21.90;99.90;;;;;;5018804;28;20059;-85
2022/08/29 10:40:17;;;;;;;;;;;21.90;99.90;;;;;;5014906;28;19931;-85
2022/08/29 10:42:43;;;;;;;;;;;22.00;99.90;;;;;;5049205;28;20015;-85
2022/08/29 10:45:13;;;;;;;;;;;22.10;99.90;;;;;;5051040;28;20017;-84
2022/08/29 10:47:40;;;;;;;;;;;22.20;99.90;;;;;;5050150;28;19921;-84
2022/08/29 10:50:26;;;;;;;;;;;22.30;99.90;;;;;;5051428;28;19924;-84
2022/08/29 10:52:59;;;;;;;;;;;22.40;99.90;;;;;;5033029;28;19920;-84
2022/08/29 10:55:28;;;;;;;;;;;22.60;99.90;;;;;;5050879;28;19928;-85
2022/08/29 10:58:13;;;;;;;;;;;22.70;99.90;;;;;;5034590;28;20289;-85
2022/08/29 11:00:45;;;;;;;;;;;22.70;99.90;;;;;;5050372;28;20007;-85
2022/08/29 11:03:24;;;;;;;;;;;22.80;99.90;;;;;;5050658;28;20006;-85
2022/08/29 11:05:55;;;;;;;;;;;22.80;99.90;;;;;;5046891;28;19925;-84
2022/08/29 11:08:27;;;;;;;;;;;22.90;99.90;;;;;;5047212;28;19925;-85
2022/08/29 11:10:53;;;;;;;;;;;22.90;99.90;;;;;;5038710;28;19941;-84
2022/08/29 11:13:22;;;;;;;;;;;22.90;99.90;;;;;;5032787;28;19920;-85
2022/08/29 11:15:56;;;;;;;;;;;22.90;99.90;;;;;;5048396;28;20015;-85
2022/08/29 11:18:30;;;;;;;;;;;22.90;99.90;;;;;;5049479;28;20390;-85
2022/08/29 11:21:16;;;;;;;;;;;23.00;99.90;;;;;;5048650;28;19921;-85
2022/08/29 11:23:43;;;;;;;;;;;23.00;99.90;;;;;;5050071;28;20286;-85
2022/08/29 11:26:21;;;;;;;;;;;23.00;99.90;;;;;;5033316;28;19920;-85
2022/08/29 11:29:05;;;;;;;;;;;23.00;99.90;;;;;;5048151;28;19925;-85
2022/08/29 11:31:49;;;;;;;;;;;23.00;99.90;;;;;;5049550;28;20374;-85
2022/08/29 11:34:26;;;;;;;;;;;23.00;99.90;;;;;;5032043;28;19921;-85
2022/08/29 11:37:00;;;;;;;;;;;23.00;99.90;;;;;;5050150;28;19921;-85
2022/08/29 11:39:44;;;;;;;;;;;23.00;99.90;;;;;;5033339;28;20460;-85
2022/08/29 11:42:10;;;;;;;;;;;23.00;99.90;;;;;;5032261;28;19921;-85
2022/08/29 11:44:43;;;;;;;;;;;23.00;99.90;;;;;;5050517;28;19932;-85
2022/08/29 11:47:27;;;;;;;;;;;23.10;99.90;;;;;;5049424;28;19921;-85
2022/08/29 11:49:53;;;;;;;;;;;23.10;99.90;;;;;;5032853;28;19978;-85
2022/08/29 11:52:25;;;;;;;;;;;23.10;99.90;;;;;;5049109;28;19924;-85
2022/08/29 11:54:53;;;;;;;;;;;23.10;99.90;;;;;;5049048;28;19928;-85
2022/08/29 11:57:18;;;;;;;;;;;23.20;99.90;;;;;;5049016;28;19928;-85
2022/08/29 11:59:50;;;;;;;;;;;23.20;99.90;;;;;;5049350;28;19921;-85
2022/08/29 12:02:31;;;;;;;;;;;23.10;99.90;;;;;;5049550;28;19971;-85
2022/08/29 12:05:05;;;;;;;;;;;23.20;99.90;;;;;;5048792;28;19928;-85
2022/08/29 12:07:35;;;;;;;;;;;23.40;99.90;;;;;;5050132;28;20387;-85
2022/08/29 12:10:02;;;;;;;;;;;23.50;99.90;;;;;;5048110;28;20015;-85
2022/08/29 12:12:37;;;;;;;;;;;23.50;99.90;;;;;;5045910;28;20399;-85
2022/08/29 12:15:29;;;;;;;;;;;23.50;99.90;;;;;;5043049;28;20456;-85
2022/08/29 12:18:12;;;;;;;;;;;23.50;99.90;;;;;;5022159;28;19960;-85
2022/08/29 12:20:40;;;;;;;;;;;23.50;99.90;;;;;;5032849;28;19924;-85
2022/08/29 12:23:12;;;;;;;;;;;23.60;99.90;;;;;;5048580;28;20449;-85
2022/08/29 12:25:45;;;;;;;;;;;23.50;99.90;;;;;;5048283;28;19970;-85
2022/08/29 12:28:16;;;;;;;;;;;23.60;99.90;;;;;;5043342;28;19967;-85
2022/08/29 12:30:48;;;;;;;;;;;23.50;99.90;;;;;;5031351;28;20046;-85
2022/08/29 12:33:35;;;;;;;;;;;23.50;99.90;;;;;;5049191;28;19951;-85
2022/08/29 12:36:20;;;;;;;;;;;23.50;99.90;;;;;;5031907;28;19928;-85
2022/08/29 12:38:53;;;;;;;;;;;23.50;99.90;;;;;;5028122;28;19921;-85
2022/08/29 12:41:39;;;;;;;;;;;23.40;99.90;;;;;;5048233;28;20388;-85
2022/08/29 12:44:08;;;;;;;;;;;23.40;99.90;;;;;;5049633;28;20019;-85
2022/08/29 12:46:35;;;;;;;;;;;23.30;99.90;;;;;;5048764;28;19925;-84
2022/08/29 12:49:06;;;;;;;;;;;23.30;99.90;;;;;;5048411;28;19987;-85
2022/08/29 12:51:33;;;;;;;;;;;23.30;99.90;;;;;;5032333;28;19982;-85
2022/08/29 12:53:59;;;;;;;;;;;23.30;99.90;;;;;;5048862;28;19921;-84
2022/08/29 12:56:25;;;;;;;;;;;23.30;99.90;;;;;;5032329;28;19921;-85
2022/08/29 12:58:50;;;;;;;;;;;23.30;99.90;;;;;;5032108;28;19927;-85
2022/08/29 13:01:36;;;;;;;;;;;23.30;99.90;;;;;;5031923;28;20015;-85
2022/08/29 13:04:04;;;;;;;;;;;23.30;99.90;;;;;;5048029;28;19921;-85
2022/08/29 13:06:30;;;;;;;;;;;23.40;99.90;;;;;;5048746;28;19929;-84
2022/08/29 13:08:56;;;;;;;;;;;23.40;99.90;;;;;;5032428;28;19924;-84
2022/08/29 13:11:24;;;;;;;;;;;23.50;99.90;;;;;;5047870;28;19932;-85
2022/08/29 13:13:50;;;;;;;;;;;23.60;99.90;;;;;;5048807;28;19920;-85
2022/08/29 13:16:26;;;;;;;;;;;23.60;99.90;;;;;;5031992;28;19981;-84
2022/08/29 13:18:52;;;;;;;;;;;23.60;99.90;;;;;;5048105;28;19925;-85
2022/08/29 13:21:20;;;;;;;;;;;23.60;99.90;;;;;;5048471;28;19929;-85
2022/08/29 13:23:55;;;;;;;;;;;23.60;99.90;;;;;;5043982;28;20023;-85
2022/08/29 13:26:21;;;;;;;;;;;23.60;99.90;;;;;;5031869;28;20390;-85
2022/08/29 13:28:49;;;;;;;;;;;23.60;99.90;;;;;;5048965;28;20404;-85
2022/08/29 13:31:15;;;;;;;;;;;23.60;99.90;;;;;;5065225;28;19980;-85
2022/08/29 13:33:50;;;;;;;;;;;23.60;99.90;;;;;;5048622;28;21112;-85
2022/08/29 13:36:34;;;;;;;;;;;23.60;99.90;;;;;;5050503;28;20340;-84
2022/08/29 13:39:23;;;;;;;;;;;23.60;99.90;;;;;;5032709;28;19994;-85
2022/08/29 13:42:01;;;;;;;;;;;23.60;99.90;;;;;;5023152;28;19921;-84
2022/08/29 13:44:26;;;;;;;;;;;23.60;99.90;;;;;;5036074;28;19956;-85
2022/08/29 13:46:56;;;;;;;;;;;23.70;99.90;;;;;;5034890;28;20337;-85
2022/08/29 13:49:23;;;;;;;;;;;23.70;99.90;;;;;;5035142;28;19929;-85
2022/08/29 13:51:49;;;;;;;;;;;23.70;99.90;;;;;;5051924;28;20393;-85
2022/08/29 13:54:14;;;;;;;;;;;23.70;99.90;;;;;;5034953;28;19928;-85
2022/08/29 13:56:40;;;;;;;;;;;23.70;99.90;;;;;;5052189;28;19921;-85
2022/08/29 13:59:06;;;;;;;;;;;23.70;99.90;;;;;;5051414;28;19955;-85
2022/08/29 14:01:32;;;;;;;;;;;23.70;99.90;;;;;;5052004;28;20020;-85
2022/08/29 14:03:57;;;;;;;;;;;23.70;99.90;;;;;;5051592;28;19927;-85
2022/08/29 14:06:24;;;;;;;;;;;23.80;99.90;;;;;;5051478;28;19962;-85
2022/08/29 14:08:51;;;;;;;;;;;23.80;99.90;;;;;;5052076;28;19925;-85
2022/08/29 14:11:16;;;;;;;;;;;23.80;99.90;;;;;;5050858;28;19927;-85
2022/08/29 14:13:42;;;;;;;;;;;23.80;99.90;;;;;;5051705;28;20007;-85
2022/08/29 14:16:08;;;;;;;;;;;23.90;99.90;;;;;;5034868;28;20309;-85
2022/08/29 14:18:34;;;;;;;;;;;24.00;99.90;;;;;;5051561;28;19932;-85
2022/08/29 14:20:59;;;;;;;;;;;24.00;99.90;;;;;;5051254;28;19921;-85
2022/08/29 14:23:25;;;;;;;;;;;24.10;99.90;;;;;;5050861;28;19927;-85
2022/08/29 14:25:51;;;;;;;;;;;24.20;99.70;;;;;;5051268;28;19920;-85
2022/08/29 14:28:17;;;;;;;;;;;24.20;99.90;;;;;;5053253;28;19963;-85
2022/08/29 14:30:42;;;;;;;;;;;24.30;99.90;;;;;;5052003;28;19987;-85